Terminal Aerodrome Forecast
Issued by NWS

Home | Current Version | Previous Version | Text Only | Print | Product List | Glossary On
Versions: 1 2 3 4 5 6 7 8 9 10 11 12 13 14 15 16 17
000
FTAK31 PANC 161739
TAFAGK
TAF
PAGK 161739Z 1618/1718 17012KT P6SM VCSH BKN060
     FM170000 17006KT 6SM -SHSN SCT015 BKN060
     FM170900 16005KT P6SM BKN050 OVC100=

USA.gov is the U.S. government's official web portal to all federal, state and local government web resources and services.